首页
METAR-TAF:

METAR-TAF

机场 :

Beaver Island Airport

Beaver Island, 密歇根州, 美国

纬度: 45-41-32N, 经度: 085-33-59W, 海拔: 204米

当前天气观测

该预报发布于15分钟前的18:35 UTC
风速6节,风向东转东北
温度 3°C
湿度 87%
气压 1013 hPa
能見度: 16.1公里
阴天层高于4200英尺
小毛毛雨

METAR: KSJX 281835Z AUTO 07006KT 10SM -DZ OVC042 03/01 A2991 RMK AO2 T00320005

时间: 14:50 (18:50 UTC)


TAF: 丢失

超过4000个机场的气象观测和天气预报(METAR&TAF报告)。

可查询的气象台以黄色和红色小点在地图上表示。

将鼠标移到小点上方,可查看气象台名称。

然后点击查看天气观测和预报。

如需切换地图:点击带黑十字的绿色按钮放大地图;点击带横线的绿色按钮缩小地图;或者点击绿色箭头查看邻近地区的地图。


METAR-TAF: